createdAt,value
2018-02-03T00:00:14.221Z,48.69
2018-02-03T00:01:16.692Z,48.43
2018-02-03T00:02:19.169Z,48.20
2018-02-03T00:03:21.686Z,48.04
2018-02-03T00:04:24.149Z,48.00
2018-02-03T00:05:26.629Z,47.92
2018-02-03T00:06:29.105Z,47.89
2018-02-03T00:07:31.566Z,47.94
2018-02-03T00:08:34.043Z,48.10
2018-02-03T00:09:36.517Z,48.11
2018-02-03T00:10:38.989Z,48.17
2018-02-03T00:11:41.444Z,48.20
2018-02-03T00:12:43.912Z,48.18
2018-02-03T00:13:46.386Z,48.25
2018-02-03T00:14:48.865Z,48.29
2018-02-03T00:15:51.349Z,48.34
2018-02-03T00:16:53.806Z,48.31
2018-02-03T00:17:56.276Z,48.40
2018-02-03T00:18:58.774Z,48.57
2018-02-03T00:20:01.245Z,48.52
2018-02-03T00:21:03.706Z,48.48
2018-02-03T00:22:06.176Z,48.58
2018-02-03T00:23:08.662Z,48.64
2018-02-03T00:24:11.152Z,48.83
2018-02-03T00:25:13.611Z,48.86
2018-02-03T00:26:16.066Z,48.88
2018-02-03T00:27:18.537Z,49.03
2018-02-03T00:28:21.031Z,48.99
2018-02-03T00:29:23.527Z,49.10
2018-02-03T00:30:25.997Z,49.08
2018-02-03T00:31:28.474Z,49.15
2018-02-03T00:32:30.953Z,49.11
2018-02-03T00:33:33.428Z,49.18
2018-02-03T00:34:35.906Z,49.47
2018-02-03T00:35:38.358Z,49.51
2018-02-03T00:36:40.823Z,49.46
2018-02-03T00:37:43.282Z,49.53
2018-02-03T00:38:45.752Z,49.58
2018-02-03T00:39:48.230Z,49.68
2018-02-03T00:40:50.687Z,49.74
2018-02-03T00:41:53.161Z,49.87
2018-02-03T00:42:55.622Z,49.91
2018-02-03T00:43:58.087Z,49.99
2018-02-03T00:45:00.575Z,50.04
2018-02-03T00:46:03.107Z,50.11
2018-02-03T00:47:05.585Z,50.20
2018-02-03T00:48:08.065Z,50.37
2018-02-03T00:49:10.537Z,50.43
2018-02-03T00:50:13.029Z,50.46
2018-02-03T00:51:15.486Z,50.68
2018-02-03T00:52:17.950Z,50.73
2018-02-03T00:53:20.426Z,50.83
2018-02-03T00:54:22.912Z,50.93
2018-02-03T00:55:25.412Z,51.04
2018-02-03T00:56:27.888Z,51.21
2018-02-03T00:57:30.364Z,51.17
2018-02-03T00:58:32.837Z,51.20
2018-02-03T00:59:35.308Z,51.18
2018-02-03T01:00:37.828Z,50.84
2018-02-03T01:01:40.300Z,50.79
2018-02-03T01:02:42.798Z,50.60
2018-02-03T01:03:45.260Z,50.47
2018-02-03T01:04:47.733Z,50.23
2018-02-03T01:05:50.224Z,50.14
2018-02-03T01:06:52.701Z,50.05
2018-02-03T01:07:55.177Z,50.00
2018-02-03T01:08:57.661Z,49.99
2018-02-03T01:10:00.119Z,49.94
2018-02-03T01:11:02.617Z,49.83
2018-02-03T01:12:05.094Z,49.90
2018-02-03T01:13:07.550Z,49.88
2018-02-03T01:14:10.045Z,49.99
2018-02-03T01:15:12.520Z,50.05
2018-02-03T01:16:15.013Z,50.19
2018-02-03T01:17:17.488Z,50.23
2018-02-03T01:18:19.972Z,50.31
2018-02-03T01:19:22.445Z,50.39
2018-02-03T01:20:24.912Z,50.45
2018-02-03T01:21:27.391Z,50.43
2018-02-03T01:22:29.860Z,50.48
2018-02-03T01:23:32.320Z,50.28
2018-02-03T01:24:34.798Z,50.15
2018-02-03T01:25:37.272Z,49.96
2018-02-03T01:26:39.754Z,49.82
2018-02-03T01:27:42.214Z,49.88
2018-02-03T01:28:44.667Z,49.69
2018-02-03T01:29:47.144Z,49.72
2018-02-03T01:30:49.616Z,49.69
2018-02-03T01:31:52.095Z,49.82
2018-02-03T01:32:54.571Z,49.79
2018-02-03T01:33:57.040Z,49.88
2018-02-03T01:34:59.497Z,49.82
2018-02-03T01:36:01.959Z,50.06
2018-02-03T01:37:04.439Z,50.16
2018-02-03T01:38:06.889Z,50.14
2018-02-03T01:39:09.351Z,50.06
2018-02-03T01:40:11.824Z,50.07
2018-02-03T01:41:14.300Z,50.08
2018-02-03T01:42:16.784Z,49.95
2018-02-03T01:43:19.257Z,49.80
2018-02-03T01:44:21.713Z,50.02
2018-02-03T01:45:24.167Z,49.93
2018-02-03T01:46:26.623Z,49.99
2018-02-03T01:49:07.910Z,50.06
2018-02-03T01:50:10.384Z,50.17
2018-02-03T01:51:12.865Z,50.19
2018-02-03T01:52:15.330Z,50.34
2018-02-03T01:53:17.799Z,50.30
2018-02-03T01:54:20.273Z,50.20
2018-02-03T01:55:22.731Z,50.06
2018-02-03T01:56:25.190Z,49.98
2018-02-03T01:57:27.655Z,49.92
2018-02-03T01:58:30.133Z,49.86
2018-02-03T01:59:32.604Z,49.70
2018-02-03T02:00:35.072Z,49.85
2018-02-03T02:01:37.604Z,49.93
2018-02-03T02:02:40.049Z,49.98
2018-02-03T02:03:42.524Z,49.92
2018-02-03T02:04:44.998Z,49.90
2018-02-03T02:05:47.454Z,50.32
2018-02-03T02:06:49.926Z,50.25
2018-02-03T02:07:52.396Z,50.52
2018-02-03T02:08:54.847Z,50.45
2018-02-03T02:09:57.307Z,50.45
2018-02-03T02:10:59.789Z,50.55
2018-02-03T02:12:02.275Z,50.71
2018-02-03T02:13:04.735Z,50.81
2018-02-03T02:14:07.198Z,50.80
2018-02-03T02:15:09.697Z,50.91
2018-02-03T02:16:12.150Z,50.85
2018-02-03T02:17:14.628Z,50.74
2018-02-03T02:18:17.087Z,50.79
2018-02-03T02:19:19.564Z,50.60
2018-02-03T02:20:22.041Z,50.56
2018-02-03T02:21:24.513Z,50.63
2018-02-03T02:22:26.985Z,50.55
2018-02-03T02:23:29.438Z,50.47
2018-02-03T02:24:31.890Z,50.45
2018-02-03T02:25:34.346Z,50.50
2018-02-03T02:26:36.821Z,50.57
2018-02-03T02:27:39.274Z,50.58
2018-02-03T02:28:41.761Z,50.67
2018-02-03T02:29:44.290Z,50.78
2018-02-03T02:30:46.722Z,50.84
2018-02-03T02:31:49.198Z,50.99
2018-02-03T02:32:51.654Z,51.10
2018-02-03T02:33:54.128Z,51.20
2018-02-03T02:34:56.616Z,51.39
2018-02-03T02:35:59.074Z,51.56
2018-02-03T02:37:01.545Z,51.63
2018-02-03T02:38:04.084Z,51.60
2018-02-03T02:39:06.494Z,51.62
2018-02-03T02:40:08.956Z,51.59
2018-02-03T02:41:11.422Z,51.28
2018-02-03T02:42:13.894Z,51.22
2018-02-03T02:43:16.374Z,51.19
2018-02-03T02:44:18.858Z,51.13
2018-02-03T02:45:21.316Z,51.07
2018-02-03T02:46:23.784Z,50.98
2018-02-03T02:47:26.253Z,50.98
2018-02-03T02:48:28.728Z,51.04
2018-02-03T02:49:31.333Z,51.01
2018-02-03T02:50:33.814Z,51.14
2018-02-03T02:51:36.283Z,51.21
2018-02-03T02:52:38.765Z,51.31
2018-02-03T02:53:41.218Z,51.46
2018-02-03T02:54:43.698Z,51.63
2018-02-03T02:55:46.158Z,51.64
2018-02-03T02:56:48.636Z,51.73
2018-02-03T02:57:51.110Z,51.78
2018-02-03T02:58:53.586Z,51.78
2018-02-03T02:59:56.046Z,51.91
2018-02-03T03:00:58.506Z,52.00
2018-02-03T03:02:00.989Z,51.80
2018-02-03T03:03:03.465Z,51.68
2018-02-03T03:04:05.942Z,51.52
2018-02-03T03:05:08.412Z,51.34
2018-02-03T03:06:10.885Z,51.29
2018-02-03T03:07:13.351Z,51.29
2018-02-03T03:08:15.815Z,51.07
2018-02-03T03:09:18.285Z,51.15
2018-02-03T03:10:20.755Z,51.15
2018-02-03T03:11:23.245Z,51.13
2018-02-03T03:12:25.725Z,51.18
2018-02-03T03:13:28.183Z,51.44
2018-02-03T03:14:30.643Z,51.43
2018-02-03T03:15:33.119Z,51.47
2018-02-03T03:16:35.600Z,51.55
2018-02-03T03:17:38.056Z,51.62
2018-02-03T03:18:40.561Z,51.60
2018-02-03T03:19:43.030Z,51.72
2018-02-03T03:20:45.492Z,51.82
2018-02-03T03:21:47.993Z,51.88
2018-02-03T03:22:50.461Z,51.89
2018-02-03T03:23:52.945Z,51.99
2018-02-03T03:24:55.404Z,52.11
2018-02-03T03:25:57.890Z,52.04
2018-02-03T03:27:00.361Z,52.02
2018-02-03T03:28:02.845Z,51.89
2018-02-03T03:29:05.320Z,51.76
2018-02-03T03:30:07.787Z,51.78
2018-02-03T03:31:10.269Z,51.62
2018-02-03T03:32:12.727Z,51.67
2018-02-03T03:33:15.182Z,51.61
2018-02-03T03:34:17.668Z,51.61
2018-02-03T03:35:20.122Z,51.70
2018-02-03T03:36:22.594Z,51.75
2018-02-03T03:37:25.111Z,51.68
2018-02-03T03:38:27.585Z,51.65
2018-02-03T03:39:30.051Z,51.79
2018-02-03T03:40:32.506Z,51.74
2018-02-03T03:41:34.962Z,51.86
2018-02-03T03:42:37.421Z,51.94
2018-02-03T03:43:39.878Z,52.03
2018-02-03T03:44:42.334Z,52.14
2018-02-03T03:45:44.813Z,52.22
2018-02-03T03:46:47.266Z,52.25
2018-02-03T03:47:49.741Z,52.27
2018-02-03T03:48:52.194Z,52.27
2018-02-03T03:49:54.647Z,52.27
2018-02-03T03:50:57.119Z,52.37
2018-02-03T03:51:59.621Z,52.22
2018-02-03T03:53:02.079Z,52.12
2018-02-03T03:54:04.539Z,51.97
2018-02-03T03:55:07.012Z,51.83
2018-02-03T03:56:09.484Z,51.71
2018-02-03T03:57:11.977Z,51.68
2018-02-03T03:58:14.448Z,51.60
2018-02-03T03:59:16.903Z,51.57
2018-02-03T04:00:19.406Z,51.56
2018-02-03T04:01:21.920Z,51.51
2018-02-03T04:02:24.426Z,51.63
2018-02-03T04:03:26.897Z,51.68
2018-02-03T04:04:29.371Z,51.93
2018-02-03T04:05:31.840Z,51.95
2018-02-03T04:06:34.320Z,52.10
2018-02-03T04:07:36.803Z,52.22
2018-02-03T04:08:39.267Z,52.19
2018-02-03T04:09:41.776Z,52.25
2018-02-03T04:10:44.252Z,52.39
2018-02-03T04:11:46.726Z,52.51
2018-02-03T04:12:49.230Z,52.51
2018-02-03T04:13:51.700Z,52.58
2018-02-03T04:14:54.159Z,52.58
2018-02-03T04:15:56.619Z,52.61
2018-02-03T04:16:59.074Z,52.50
2018-02-03T04:18:01.573Z,52.31
2018-02-03T04:19:04.030Z,52.19
2018-02-03T04:20:06.482Z,52.02
2018-02-03T04:21:08.953Z,51.82
2018-02-03T04:22:11.411Z,51.91
2018-02-03T04:23:13.905Z,52.00
2018-02-03T04:24:16.365Z,52.06
2018-02-03T04:25:18.846Z,51.89
2018-02-03T04:26:21.322Z,51.89
2018-02-03T04:27:23.793Z,51.96
2018-02-03T04:28:26.271Z,52.11
2018-02-03T04:29:28.754Z,52.19
2018-02-03T04:30:31.249Z,52.23
2018-02-03T04:31:33.715Z,52.28
2018-02-03T04:32:36.165Z,52.35
2018-02-03T04:33:38.642Z,52.42
2018-02-03T04:34:41.094Z,52.47
2018-02-03T04:35:43.561Z,52.57
2018-02-03T04:36:46.037Z,52.64
2018-02-03T04:37:48.514Z,52.73
2018-02-03T04:38:51.005Z,52.80
2018-02-03T04:39:53.459Z,52.88
2018-02-03T04:40:55.920Z,52.94
2018-02-03T04:41:58.376Z,52.92
2018-02-03T04:43:00.834Z,53.10
2018-02-03T04:44:03.310Z,52.92
2018-02-03T04:45:05.770Z,52.69
2018-02-03T04:46:08.245Z,52.80
2018-02-03T04:47:10.718Z,52.73
2018-02-03T04:48:13.183Z,52.41
2018-02-03T04:49:15.667Z,52.66
2018-02-03T04:50:18.161Z,52.50
2018-02-03T04:51:20.614Z,52.54
2018-02-03T04:52:23.070Z,52.53
2018-02-03T04:53:25.545Z,52.78
2018-02-03T04:54:28.075Z,52.50
2018-02-03T04:55:30.549Z,52.60
2018-02-03T04:56:33.040Z,52.71
2018-02-03T04:57:35.494Z,52.67
2018-02-03T04:58:37.950Z,52.66
2018-02-03T04:59:40.442Z,52.78
2018-02-03T05:00:42.933Z,52.91
2018-02-03T05:01:45.404Z,53.09
2018-02-03T05:02:47.901Z,53.12
2018-02-03T05:03:50.362Z,53.32
2018-02-03T05:04:52.850Z,53.46
2018-02-03T05:05:55.388Z,53.57
2018-02-03T05:06:57.872Z,53.54
2018-02-03T05:08:00.353Z,53.47
2018-02-03T05:09:02.806Z,53.38
2018-02-03T05:10:05.304Z,53.30
2018-02-03T05:11:07.763Z,53.20
2018-02-03T05:12:10.218Z,53.15
2018-02-03T05:13:12.717Z,53.20
2018-02-03T05:14:15.197Z,52.92
2018-02-03T05:15:17.688Z,52.80
2018-02-03T05:16:20.169Z,52.88
2018-02-03T05:17:22.678Z,52.77
2018-02-03T05:18:25.176Z,52.78
2018-02-03T05:19:27.642Z,52.77
2018-02-03T05:20:30.126Z,52.83
2018-02-03T05:21:32.582Z,52.93
2018-02-03T05:22:35.063Z,52.92
2018-02-03T05:23:37.537Z,52.96
2018-02-03T05:24:40.013Z,53.07
2018-02-03T05:25:42.508Z,53.42
2018-02-03T05:26:44.962Z,53.38
2018-02-03T05:27:47.437Z,53.32
2018-02-03T05:28:49.903Z,52.73
2018-02-03T05:29:52.373Z,50.61
2018-02-03T05:30:54.864Z,51.28
2018-02-03T05:31:57.333Z,51.86
2018-02-03T05:32:59.794Z,51.95
2018-02-03T05:34:02.246Z,51.36
2018-02-03T05:35:04.721Z,51.36
2018-02-03T05:36:07.237Z,51.67
2018-02-03T05:37:09.708Z,51.84
2018-02-03T05:38:12.165Z,51.65
2018-02-03T05:39:14.633Z,51.74
2018-02-03T05:40:17.091Z,51.71
2018-02-03T05:41:19.581Z,51.31
2018-02-03T05:42:22.034Z,51.14
2018-02-03T05:43:24.514Z,50.87
2018-02-03T05:44:29.589Z,50.86
2018-02-03T05:45:32.073Z,50.53
2018-02-03T05:46:34.573Z,50.37
2018-02-03T05:47:37.052Z,50.32
2018-02-03T05:48:39.515Z,50.05
2018-02-03T05:49:41.971Z,50.10
2018-02-03T05:50:44.435Z,50.02
2018-02-03T05:51:46.890Z,50.05
2018-02-03T05:52:49.361Z,49.79
2018-02-03T05:53:51.823Z,49.76
2018-02-03T05:54:54.296Z,49.70
2018-02-03T05:55:56.758Z,49.71
2018-02-03T05:56:59.213Z,49.65
2018-02-03T05:58:01.684Z,49.70
2018-02-03T05:59:04.157Z,49.48
2018-02-03T06:00:06.626Z,49.29
2018-02-03T06:01:09.101Z,49.98
2018-02-03T06:02:11.579Z,49.71
2018-02-03T06:03:14.108Z,49.63
2018-02-03T06:04:16.583Z,49.28
2018-02-03T06:05:19.045Z,49.04
2018-02-03T06:06:21.512Z,49.13
2018-02-03T06:07:23.985Z,48.55
2018-02-03T06:08:26.457Z,48.12
2018-02-03T06:09:28.933Z,48.14
2018-02-03T06:10:31.403Z,48.09
2018-02-03T06:11:33.858Z,47.93
2018-02-03T06:12:36.329Z,47.63
2018-02-03T06:13:38.792Z,47.65
2018-02-03T06:14:41.246Z,47.49
2018-02-03T06:15:43.720Z,47.44
2018-02-03T06:16:46.174Z,47.20
2018-02-03T06:17:48.626Z,47.10
2018-02-03T06:18:51.083Z,47.22
2018-02-03T06:19:53.543Z,47.58
2018-02-03T06:20:56.016Z,47.94
2018-02-03T06:21:58.470Z,48.03
2018-02-03T06:23:00.950Z,48.21
2018-02-03T06:24:03.406Z,48.34
2018-02-03T06:25:05.916Z,48.43
2018-02-03T06:26:08.357Z,48.82
2018-02-03T06:27:10.840Z,48.77
2018-02-03T06:28:13.319Z,49.07
2018-02-03T06:29:15.780Z,49.15
2018-02-03T06:30:18.257Z,49.15
2018-02-03T06:31:20.715Z,49.26
2018-02-03T06:32:23.170Z,49.29
2018-02-03T06:33:25.649Z,49.38
2018-02-03T06:34:28.110Z,49.37
2018-02-03T06:35:30.583Z,49.41
2018-02-03T06:36:33.046Z,49.55
2018-02-03T06:37:35.654Z,49.44
2018-02-03T06:38:38.114Z,49.41
2018-02-03T06:39:40.578Z,49.25
2018-02-03T06:40:43.051Z,49.26
2018-02-03T06:41:45.525Z,49.27
2018-02-03T06:42:47.996Z,49.09
2018-02-03T06:43:50.477Z,49.27
2018-02-03T06:44:52.938Z,49.28
2018-02-03T06:45:55.391Z,49.29
2018-02-03T06:46:57.860Z,49.16
2018-02-03T06:48:00.326Z,49.15
2018-02-03T06:49:02.800Z,49.29
2018-02-03T06:50:05.277Z,49.16
2018-02-03T06:51:07.744Z,49.10
2018-02-03T06:52:10.198Z,48.91
2018-02-03T06:53:12.669Z,48.64
2018-02-03T06:54:15.145Z,48.54
2018-02-03T06:55:17.629Z,48.53
2018-02-03T06:56:20.104Z,48.42
2018-02-03T06:57:22.558Z,49.21
2018-02-03T06:58:25.037Z,49.71
2018-02-03T06:59:27.520Z,49.86
2018-02-03T07:00:29.982Z,50.20
2018-02-03T07:01:32.461Z,50.22
2018-02-03T07:02:35.022Z,50.12
2018-02-03T07:03:37.478Z,49.87
2018-02-03T07:04:39.953Z,49.76
2018-02-03T07:05:42.419Z,49.08
2018-02-03T07:06:44.891Z,49.08
2018-02-03T07:07:47.373Z,48.52
2018-02-03T07:08:49.844Z,49.16
2018-02-03T07:09:52.299Z,49.16
2018-02-03T07:10:54.776Z,49.14
2018-02-03T07:11:57.318Z,49.57
2018-02-03T07:12:59.827Z,49.25
2018-02-03T07:14:02.300Z,49.13
2018-02-03T07:15:04.773Z,49.68
2018-02-03T07:16:07.244Z,49.43
2018-02-03T07:17:09.703Z,48.65
2018-02-03T07:18:12.178Z,47.63
2018-02-03T07:19:14.652Z,47.73
2018-02-03T07:20:17.102Z,47.73
2018-02-03T07:21:19.570Z,48.12
2018-02-03T07:22:22.026Z,48.89
2018-02-03T07:23:24.508Z,49.53
2018-02-03T07:24:26.973Z,49.77
2018-02-03T07:25:29.453Z,49.99
2018-02-03T07:26:31.919Z,50.21
2018-02-03T07:27:34.405Z,50.05
2018-02-03T07:28:36.875Z,49.75
2018-02-03T07:29:40.597Z,49.52
2018-02-03T07:30:43.519Z,49.39
2018-02-03T07:31:46.002Z,49.34
2018-02-03T07:32:48.526Z,49.33
2018-02-03T07:33:50.991Z,49.32
2018-02-03T07:34:53.678Z,49.22
2018-02-03T07:35:56.327Z,49.07
2018-02-03T07:36:58.818Z,49.02
2018-02-03T07:38:01.410Z,48.97
2018-02-03T07:39:03.898Z,48.82
2018-02-03T07:40:06.358Z,48.67
2018-02-03T07:41:08.829Z,48.64
2018-02-03T07:42:11.477Z,48.64
2018-02-03T07:43:14.032Z,48.63
2018-02-03T07:44:16.517Z,48.65
2018-02-03T07:45:18.992Z,48.65
2018-02-03T07:46:21.469Z,48.54
2018-02-03T07:47:23.952Z,48.54
2018-02-03T07:48:26.421Z,48.33
2018-02-03T07:49:28.901Z,48.39
2018-02-03T07:50:31.385Z,48.41
2018-02-03T07:51:33.860Z,48.38
2018-02-03T07:52:36.341Z,48.38
2018-02-03T07:53:38.806Z,48.24
2018-02-03T07:54:41.272Z,48.25
2018-02-03T07:55:43.730Z,48.25
2018-02-03T07:56:46.209Z,48.11
2018-02-03T07:57:48.679Z,47.96
2018-02-03T07:58:51.135Z,47.85
2018-02-03T07:59:53.631Z,47.87
2018-02-03T08:00:56.095Z,47.92
2018-02-03T08:01:58.594Z,47.95
2018-02-03T08:03:01.055Z,48.04
2018-02-03T08:04:03.511Z,47.99
2018-02-03T08:05:05.976Z,47.92
2018-02-03T08:06:08.442Z,47.96
2018-02-03T08:07:10.912Z,48.02
2018-02-03T08:08:13.372Z,48.04
2018-02-03T08:09:15.838Z,48.01
2018-02-03T08:10:18.318Z,47.83
2018-02-03T08:11:20.774Z,47.77
2018-02-03T08:12:23.245Z,47.72
2018-02-03T08:13:25.718Z,47.65
2018-02-03T08:14:28.183Z,47.61
2018-02-03T08:15:30.653Z,47.47
2018-02-03T08:16:33.152Z,47.26
2018-02-03T08:17:35.638Z,47.24
2018-02-03T08:18:38.117Z,47.28
2018-02-03T08:19:40.627Z,47.25
2018-02-03T08:20:43.090Z,46.79
2018-02-03T08:21:45.554Z,46.74
2018-02-03T08:22:48.008Z,46.79
2018-02-03T08:23:50.480Z,46.90
2018-02-03T08:24:52.940Z,46.87
2018-02-03T08:25:55.425Z,46.83
2018-02-03T08:26:57.914Z,46.66
2018-02-03T08:28:00.371Z,46.52
2018-02-03T08:29:02.855Z,46.55
2018-02-03T08:30:05.372Z,46.43
2018-02-03T08:31:07.844Z,46.21
2018-02-03T08:32:10.313Z,45.85
2018-02-03T08:33:12.793Z,45.83
2018-02-03T08:34:15.289Z,46.06
2018-02-03T08:35:17.744Z,46.26
2018-02-03T08:36:20.210Z,45.59
2018-02-03T08:37:22.939Z,45.79
2018-02-03T08:38:25.787Z,45.60
2018-02-03T08:39:28.582Z,44.64
2018-02-03T08:40:31.058Z,44.86
2018-02-03T08:41:33.519Z,44.85
2018-02-03T08:42:35.974Z,44.49
2018-02-03T08:43:38.443Z,43.90
2018-02-03T08:44:40.906Z,43.24
2018-02-03T08:45:43.376Z,42.87
2018-02-03T08:46:45.834Z,42.48
2018-02-03T08:47:48.334Z,42.13
2018-02-03T08:48:50.813Z,41.73
2018-02-03T08:49:53.283Z,41.45
2018-02-03T08:50:55.848Z,41.07
2018-02-03T08:51:58.354Z,40.82
2018-02-03T08:53:00.833Z,40.51
2018-02-03T08:54:03.298Z,40.28
2018-02-03T08:55:05.773Z,39.89
2018-02-03T08:56:08.235Z,39.72
2018-02-03T08:57:10.693Z,39.62
2018-02-03T08:58:13.158Z,39.58
2018-02-03T08:59:15.625Z,39.84
2018-02-03T09:00:18.086Z,39.97
2018-02-03T09:01:20.550Z,40.27
2018-02-03T09:02:23.031Z,40.09
2018-02-03T09:03:25.516Z,39.99
2018-02-03T09:04:27.974Z,39.98
2018-02-03T09:05:30.445Z,39.83
2018-02-03T09:06:32.980Z,39.59
2018-02-03T09:07:35.456Z,39.60
2018-02-03T09:08:37.910Z,39.47
2018-02-03T09:09:40.375Z,39.91
2018-02-03T09:10:42.839Z,39.78
2018-02-03T09:11:57.199Z,39.97
2018-02-03T09:12:59.677Z,39.81
2018-02-03T09:14:02.151Z,39.78
2018-02-03T09:15:04.611Z,39.79
2018-02-03T09:16:07.079Z,39.43
2018-02-03T09:17:09.564Z,39.57
2018-02-03T09:18:12.296Z,39.31
2018-02-03T09:19:14.808Z,38.82
2018-02-03T09:20:17.299Z,38.85
2018-02-03T09:21:20.067Z,38.83
2018-02-03T09:22:22.594Z,37.98
2018-02-03T09:23:25.295Z,38.13
2018-02-03T09:24:27.818Z,37.53
2018-02-03T09:25:30.290Z,37.81
2018-02-03T09:26:32.766Z,37.43
2018-02-03T09:27:35.256Z,37.75
2018-02-03T09:28:37.738Z,37.27
2018-02-03T09:29:40.225Z,36.57
2018-02-03T09:30:42.700Z,36.34
2018-02-03T09:31:45.185Z,36.85
2018-02-03T09:32:47.661Z,36.58
2018-02-03T09:33:50.127Z,37.03
2018-02-03T09:34:52.679Z,38.04
2018-02-03T09:35:55.161Z,38.60
2018-02-03T09:36:57.695Z,39.48
2018-02-03T09:38:00.163Z,39.33
2018-02-03T09:39:02.631Z,39.31
2018-02-03T09:40:05.123Z,39.30
2018-02-03T09:41:07.590Z,38.99
2018-02-03T09:42:10.061Z,38.35
2018-02-03T09:43:12.537Z,37.90
2018-02-03T09:44:15.010Z,37.95
2018-02-03T09:45:17.495Z,38.01
2018-02-03T09:46:19.971Z,37.47
2018-02-03T09:47:22.438Z,37.77
2018-02-03T09:48:24.921Z,38.07
2018-02-03T09:49:27.391Z,38.12
2018-02-03T09:50:29.869Z,38.12
2018-02-03T09:51:32.376Z,38.47
2018-02-03T09:52:34.863Z,38.42
2018-02-03T09:53:37.348Z,38.61
2018-02-03T09:54:39.841Z,38.62
2018-02-03T09:55:42.308Z,38.98
2018-02-03T09:56:44.776Z,39.18
2018-02-03T09:57:47.258Z,39.13
2018-02-03T09:58:49.726Z,39.20
2018-02-03T09:59:52.212Z,39.30
2018-02-03T10:00:54.697Z,39.43
2018-02-03T10:01:57.172Z,39.23
2018-02-03T10:02:59.643Z,39.19
2018-02-03T10:04:02.109Z,39.18
2018-02-03T10:05:04.592Z,39.22
2018-02-03T10:06:07.058Z,39.24
2018-02-03T10:07:09.523Z,39.25
2018-02-03T10:08:11.987Z,39.34
2018-02-03T10:09:14.455Z,39.35
2018-02-03T10:10:16.923Z,39.40
2018-02-03T10:11:19.387Z,39.49
2018-02-03T10:12:21.864Z,39.58
2018-02-03T10:13:24.364Z,39.63
2018-02-03T10:14:26.822Z,39.74
2018-02-03T10:15:29.301Z,39.82
2018-02-03T10:16:31.776Z,39.92
2018-02-03T10:17:34.405Z,40.04
2018-02-03T10:18:36.986Z,40.13
2018-02-03T10:19:39.454Z,40.25
2018-02-03T10:20:41.923Z,40.36
2018-02-03T10:21:44.473Z,40.46
2018-02-03T10:22:46.935Z,40.57
2018-02-03T10:23:49.409Z,40.65
2018-02-03T10:24:51.942Z,40.75
2018-02-03T10:25:54.407Z,40.85
2018-02-03T10:26:56.887Z,40.97
2018-02-03T10:27:59.346Z,41.03
2018-02-03T10:29:01.809Z,41.08
2018-02-03T10:30:04.335Z,41.17
2018-02-03T10:31:06.819Z,41.23
2018-02-03T10:32:09.279Z,41.34
2018-02-03T10:33:11.797Z,41.40
2018-02-03T10:34:14.262Z,41.45
2018-02-03T10:35:16.728Z,41.51
2018-02-03T10:36:19.205Z,41.58
2018-02-03T10:37:21.676Z,41.66
2018-02-03T10:38:24.163Z,41.71
2018-02-03T10:39:26.631Z,41.76
2018-02-03T10:40:29.092Z,41.83
2018-02-03T10:41:31.569Z,41.91
2018-02-03T10:42:34.030Z,41.98
2018-02-03T10:43:36.510Z,42.03
2018-02-03T10:44:38.989Z,42.11
2018-02-03T10:45:41.472Z,42.19
2018-02-03T10:46:43.940Z,42.28
2018-02-03T10:47:46.515Z,42.33
2018-02-03T10:48:48.984Z,42.38
2018-02-03T10:49:51.460Z,42.45
2018-02-03T10:50:53.941Z,42.52
2018-02-03T10:51:56.429Z,42.59
2018-02-03T10:52:58.891Z,42.66
2018-02-03T10:54:01.374Z,42.73
2018-02-03T10:55:03.872Z,42.78
2018-02-03T10:56:06.331Z,42.84
2018-02-03T10:57:08.823Z,42.89
2018-02-03T10:58:11.325Z,42.93
2018-02-03T10:59:13.856Z,43.01
2018-02-03T11:00:16.334Z,43.06
2018-02-03T11:01:18.821Z,43.13
2018-02-03T11:02:21.283Z,43.18
2018-02-03T11:03:23.757Z,43.24
2018-02-03T11:04:26.281Z,43.28
2018-02-03T11:05:28.746Z,43.33
2018-02-03T11:06:31.227Z,43.36
2018-02-03T11:07:33.719Z,43.41
2018-02-03T11:08:36.204Z,43.46
2018-02-03T11:09:38.690Z,43.51
2018-02-03T11:10:41.158Z,43.55
2018-02-03T11:11:43.633Z,43.61
2018-02-03T11:12:46.183Z,43.65
2018-02-03T11:13:48.646Z,43.69
2018-02-03T11:14:51.111Z,43.75
2018-02-03T11:15:53.585Z,43.78
2018-02-03T11:16:56.044Z,43.81
2018-02-03T11:17:58.518Z,43.86
2018-02-03T11:19:00.980Z,43.91
2018-02-03T11:20:03.446Z,43.96
2018-02-03T11:21:05.921Z,43.99
2018-02-03T11:22:08.396Z,44.05
2018-02-03T11:23:10.860Z,44.11
2018-02-03T11:24:13.338Z,44.11
2018-02-03T11:25:15.799Z,44.14
2018-02-03T11:26:18.293Z,44.19
2018-02-03T11:27:20.751Z,44.23
2018-02-03T11:28:23.225Z,44.25
2018-02-03T11:29:25.695Z,44.31
2018-02-03T11:30:28.146Z,44.36
2018-02-03T11:31:30.611Z,44.41
2018-02-03T11:32:33.102Z,44.41
2018-02-03T11:33:35.577Z,44.44
2018-02-03T11:34:38.069Z,44.50
2018-02-03T11:35:40.545Z,44.54
2018-02-03T11:36:43.006Z,44.61
2018-02-03T11:37:45.481Z,44.60
2018-02-03T11:38:47.957Z,44.65
2018-02-03T11:39:50.436Z,44.69
2018-02-03T11:40:52.908Z,44.72
2018-02-03T11:41:55.371Z,44.76
2018-02-03T11:42:57.834Z,44.76
2018-02-03T11:44:00.313Z,44.76
2018-02-03T11:45:02.794Z,44.80
2018-02-03T11:46:05.273Z,44.84
2018-02-03T11:47:07.765Z,44.88
2018-02-03T11:48:10.241Z,44.90
2018-02-03T11:49:12.746Z,44.93
2018-02-03T11:50:15.206Z,44.95
2018-02-03T11:51:17.663Z,44.97
2018-02-03T11:52:20.137Z,44.99
2018-02-03T11:53:22.609Z,45.02
2018-02-03T11:54:25.077Z,45.04
2018-02-03T11:55:27.562Z,45.07
2018-02-03T11:56:30.038Z,45.11
2018-02-03T11:57:32.508Z,45.11
2018-02-03T11:58:35.122Z,45.10
2018-02-03T11:59:37.597Z,45.13
2018-02-03T12:00:40.055Z,45.18
2018-02-03T12:01:42.515Z,45.20
2018-02-03T12:02:44.996Z,45.18
2018-02-03T12:03:47.477Z,45.19
2018-02-03T12:04:49.945Z,45.21
2018-02-03T12:05:52.414Z,45.21
2018-02-03T12:06:54.875Z,45.24
2018-02-03T12:07:57.356Z,45.27
2018-02-03T12:08:59.837Z,45.26
2018-02-03T12:10:02.295Z,45.26
2018-02-03T12:11:04.759Z,45.26
2018-02-03T12:12:07.227Z,45.27
2018-02-03T12:13:09.709Z,45.30
2018-02-03T12:14:12.184Z,45.31
2018-02-03T12:15:14.702Z,45.32
2018-02-03T12:16:17.159Z,45.34
2018-02-03T12:17:19.632Z,45.38
2018-02-03T12:18:22.105Z,45.36
2018-02-03T12:19:24.563Z,45.38
2018-02-03T12:20:27.141Z,45.39
2018-02-03T12:21:29.603Z,45.42
2018-02-03T12:22:32.075Z,45.44
2018-02-03T12:23:34.548Z,45.63
2018-02-03T12:24:37.029Z,45.66
2018-02-03T12:25:39.494Z,45.89
2018-02-03T12:26:41.951Z,46.18
2018-02-03T12:27:44.424Z,46.26
2018-02-03T12:28:46.886Z,46.33
2018-02-03T12:29:49.360Z,46.38
2018-02-03T12:30:51.823Z,46.47
2018-02-03T12:31:54.296Z,46.59
2018-02-03T12:32:56.772Z,46.57
2018-02-03T12:33:59.399Z,46.42
2018-02-03T12:35:01.863Z,46.40
2018-02-03T12:36:04.359Z,46.39
2018-02-03T12:37:06.815Z,46.38
2018-02-03T12:38:09.297Z,46.38
2018-02-03T12:39:11.774Z,46.39
2018-02-03T12:40:14.576Z,46.42
2018-02-03T12:41:17.055Z,46.45
2018-02-03T12:42:19.529Z,46.47
2018-02-03T12:43:22.033Z,46.48
2018-02-03T12:44:24.491Z,46.47
2018-02-03T12:45:26.969Z,46.47
2018-02-03T12:46:29.434Z,46.44
2018-02-03T12:47:31.893Z,46.43
2018-02-03T12:48:34.365Z,46.41
2018-02-03T12:49:36.823Z,46.54
2018-02-03T12:50:39.296Z,46.51
2018-02-03T12:51:41.762Z,46.54
2018-02-03T12:52:44.225Z,46.54
2018-02-03T12:53:46.694Z,46.54
2018-02-03T12:54:49.163Z,46.56
2018-02-03T12:55:51.619Z,46.61
2018-02-03T12:56:54.094Z,46.67
2018-02-03T12:57:56.560Z,46.77
2018-02-03T12:58:59.019Z,46.83
2018-02-03T13:00:01.497Z,46.89
2018-02-03T13:01:03.977Z,46.93
2018-02-03T13:02:06.450Z,46.96
2018-02-03T13:03:08.911Z,46.97
2018-02-03T13:04:11.375Z,46.94
2018-02-03T13:05:13.900Z,46.92
2018-02-03T13:06:16.373Z,46.86
2018-02-03T13:07:18.846Z,46.87
2018-02-03T13:08:21.324Z,46.86
2018-02-03T13:09:23.824Z,46.77
2018-02-03T13:10:26.302Z,46.77
2018-02-03T13:11:28.780Z,46.81
2018-02-03T13:12:31.266Z,46.83
2018-02-03T13:13:33.763Z,46.84
2018-02-03T13:14:36.234Z,46.86
2018-02-03T13:15:38.784Z,46.88
2018-02-03T13:16:41.260Z,46.92
2018-02-03T13:17:43.715Z,46.96
2018-02-03T13:18:46.260Z,47.02
2018-02-03T13:19:48.761Z,47.07
2018-02-03T13:20:51.232Z,47.31
2018-02-03T13:21:53.716Z,47.35
2018-02-03T13:22:56.201Z,47.35
2018-02-03T13:23:58.779Z,47.37
2018-02-03T13:25:01.253Z,47.37
2018-02-03T13:26:04.182Z,47.39